Terminal Aerodrome Forecast
Issued by NWS Shreveport, LA

Home | Current Version | Previous Version | Text Only | Print | Product List | Glossary On
Versions: 1 2 3 4 5 6 7 8 9 10 11 12 13 14 15 16 17 18
000
FTUS44 KSHV 060544
TAFSHV
TAF
KSHV 060544Z 0606/0706 25004KT 3SM -RA BR BKN007 OVC010
      TEMPO 0606/0608 2SM -TSRA BR BKN007 OVC020CB
     FM060900 28004KT 2SM -DZ BR OVC004
     FM061600 30006KT P6SM OVC009
     FM062000 01006KT P6SM BKN015
     FM070200 05004KT P6SM BKN010=

USA.gov is the U.S. government's official web portal to all federal, state and local government web resources and services.